This is the latest recevied weather packets stored in our database for station/object GW1699. If no packets are shown the sender has not sent any weather packets the latest 10 day(s).
| Time | Temp. | Humidity | Pressure | Rain* | Wind** | Luminosity | Snow |
|---|---|---|---|---|---|---|---|
| 1777873000 | 8.33° C | 78% | 1013.5 hPa | 0 mm | - | - | - |
| 1777868671 | 8.33° C | 70% | 1013.5 hPa | 0 mm | - | - | - |
| 1777867605 | 8.33° C | 71% | 1013.5 hPa | 0 mm | - | - | - |
| 1777865773 | 8.89° C | 72% | 1013.8 hPa | 0 mm | - | - | - |
| 1777865436 | 8.89° C | 73% | 1013.8 hPa | 0 mm | - | - | - |
| 1777863254 | 8.89° C | 70% | 1013.5 hPa | 0 mm | - | - | - |
| 1777862540 | 8.89° C | 71% | 1013.8 hPa | 0 mm | - | - | - |
| 1777861827 | 8.89° C | 66% | 1013.5 hPa | 0 mm | - | - | - |
| 1777861114 | 8.89° C | 68% | 1013.8 hPa | 0 mm | - | - | - |
| 1777860380 | 9.44° C | 74% | 1013.8 hPa | 0 mm | - | - | - |
| 1777857134 | 10° C | 67% | 1013.8 hPa | 0 mm | - | - | - |
| 1777856079 | 10° C | 67% | 1013.8 hPa | 0 mm | - | - | - |
| 1777849972 | 13.33° C | 48% | 1013.5 hPa | 0 mm | - | - | - |
| 1777848143 | 14.44° C | 44% | 1013.8 hPa | 0 mm | - | - | - |
| 1777836981 | 14.44° C | 34% | 1015.2 hPa | 0 mm | - | - | - |
| 1777836644 | 15° C | 35% | 1015.5 hPa | 0 mm | - | - | - |
| 1777832334 | 12.78° C | 37% | 1015.9 hPa | 0 mm | - | - | - |
| 1777830500 | 13.33° C | 43% | 1016.5 hPa | 0 mm | - | - | - |
| 1777824410 | 10.56° C | 44% | 1017.9 hPa | 0 mm | - | - | - |
| 1777823677 | 10° C | 47% | 1017.9 hPa | 0 mm | - | - | - |
| 1777821138 | 8.89° C | 48% | 1018.2 hPa | 0 mm | - | - | - |
| 1777820790 | 8.89° C | 53% | 1018.2 hPa | 0 mm | - | - | - |
| 1777820078 | 8.89° C | 53% | 1017.9 hPa | 0 mm | - | - | - |
| 1777818641 | 8.33° C | 56% | 1018.2 hPa | 0 mm | - | - | - |
| 1777816828 | 7.22° C | 69% | 1018.2 hPa | 0 mm | - | - | - |
* Rain since midnight (hover to see other rain measurements)
** Current wind speed in m/s (hover to see current wind gust speed)